Dupage Airport
KDPA : rendu visible

Aérodrome :











RETROUVEZ-NOUS SUR...

 
LOGIN :

S'inscrire | Disclaimer

   EN    FR    IT 

 









Légende :    VFR   VFR Marginal   IFR   IFR Intensif   IFR Très Intensif
Visi : 
Plafond : 
>= 8 km
>= 3000ft
5 à 8 km
1000 à 3000 ft
1500m à 5 km
500 à 1000 ft
800 à 1500m
200 à 500 ft
< 800m
< 200 ft
Symboles :   Orages  Brouillard  Fortes neiges  Fortes précipitations  Vent > 20 kt






- Altitude de l'aérodrome : 759 ft


KDPA - Dupage

DERNIER METAR :
  • 300152Z 29005KT 10SM CLR 15/07 A3008 RMK AO2 SLP185 T01500072

METARs EXPIRÉS :
  • 300052Z 32008G19KT 10SM BKN055 17/08 A3007 RMK AO2 SLP181 T01720083
  • 292352Z 34016KT 10SM FEW043 OVC055 18/09 A3005 RMK AO2 SLP174 T01830089 10233 20183 53021

TAF KDPA
Valide du 30 à 00h jusqu'au 31 à 00h UTC


292320Z 3000/3024 32012G18KT P6SM BKN060
FM300100 32008KT P6SM BKN050
FM301500 33009KT P6SM BKN050
FIR KZAU / Amérique du Nord



MET'MAP, la Météo Aéronautique d'un coup d'oeil ! - Copyright ORBIFLY Décembre 2007 - Disclaimer

ORBIFLY MET'MAP TEAM :

Programmation & Développement : Alexandra Zaïnal
Sur une idée originale de : Baudouin d'Aumeries
Assistance à la programmation : Marc-Olivier Méhu
Soutien technique & logistique : Manuel Goepfert

Contact : metmap@orbifly.com




SOURCES & CREDITS :

   NOAA       Earth
Advisory